Saint Helens, Tasmania

11:09 PM AEDT on February 13, 2016 (GMT +1100)
Launceston | | Change Station
CLOSE
Current Station
Airport
Location: Launceston Airport,
Elevation: 561 ft
Nearby Weather Stations

Elev 561 ft 41.55 °S, 147.21 °E | Updated 9 minutes ago

Mostly Cloudy
Mostly Cloudy
64 °F
Feels Like 64 °F
N
16
Wind Variable Wind from NW

Today
High -- | Low -- °F
--% Chance of Precip.
Yesterday
High -- | Low -- °F
Precip. -- in
Pressure 29.65 in
Visibility 6.2 miles
Clouds Mostly Cloudy 5400 ft
Dew Point 52 °F
Humidity 64%
Rainfall 0.00 in
Snow Depth Not available.
6:27 AM 8:14 PM
Waxing Crescent, 30% visible
METAR YMLT 131200Z AUTO 31014KT 9999 // BKN054 18/11 Q1004
Pressure 29.65 in
Visibility 6.2 miles
Clouds Mostly Cloudy 5400 ft
Dew Point 52 °F
Humidity 64%
Rainfall 0.00 in
Snow Depth Not available.
6:27 AM 8:14 PM
Waxing Crescent, 30% visible
METAR YMLT 131200Z AUTO 31014KT 9999 // BKN054 18/11 Q1004

10-Day Weather Forecast

No radar image for this location.
×

Almanac

Astronomy

Feb. 13, 2016 Rise Set
Actual Time
Civil Twilight
Nautical Twilight
Astronomical Twilight
Moon
Length of Visible Light
Length of Day
Tomorrow will be .
, % of the Moon is Illuminated

Today's Extremes

Country Highs Country Lows

Community

WunderPhotos

Upload Photos

1,892,541 photos uploaded!

WunderBlog® & News

Nearby

Air Quality

  Air Quality AQ Index Pollutant
Not available.

Snow Depth

Station Depth Elevation

Earthquake Activity

City Distance Mag. Time & Date
Minimum magnitude displayed is 2.5.

Coastal Water Temperatures

Place Temperature

Stations

Nearby Weather Stations

Station Location Temp. Windchill Dew Point Humidity Wind Precip. Elev Updated Type